createdAt,value
2024-01-04T00:01:35.465Z,74.37
2024-01-04T00:04:02.669Z,74.49
2024-01-04T00:06:29.724Z,74.37
2024-01-04T00:08:56.961Z,74.54
2024-01-04T00:11:23.904Z,74.30
2024-01-04T00:13:50.940Z,74.40
2024-01-04T00:16:17.891Z,74.50
2024-01-04T00:18:45.090Z,74.44
2024-01-04T00:21:14.025Z,74.43
2024-01-04T00:23:41.289Z,74.53
2024-01-04T00:26:08.389Z,74.51
2024-01-04T00:28:35.674Z,74.54
2024-01-04T00:31:02.722Z,74.51
2024-01-04T00:33:29.894Z,74.47
2024-01-04T00:35:57.105Z,74.37
2024-01-04T00:38:24.562Z,74.43
2024-01-04T00:40:51.512Z,74.52
2024-01-04T00:43:18.533Z,74.50
2024-01-04T00:45:45.795Z,74.58
2024-01-04T00:48:12.960Z,74.47
2024-01-04T00:50:40.045Z,74.39
2024-01-04T00:53:10.129Z,74.31
2024-01-04T00:55:38.049Z,74.40
2024-01-04T00:58:06.744Z,74.34
2024-01-04T01:00:34.542Z,74.43
2024-01-04T01:03:01.917Z,74.47
2024-01-04T01:05:29.020Z,74.50
2024-01-04T01:07:56.152Z,74.55
2024-01-04T01:10:23.090Z,74.58
2024-01-04T01:12:50.009Z,74.47
2024-01-04T01:15:17.399Z,74.52
2024-01-04T01:17:45.061Z,74.46
2024-01-04T01:20:12.690Z,74.55
2024-01-04T01:22:39.757Z,74.57
2024-01-04T01:25:06.910Z,74.50
2024-01-04T01:27:33.858Z,74.46
2024-01-04T01:30:01.005Z,74.49
2024-01-04T01:32:28.079Z,74.43
2024-01-04T01:34:55.819Z,74.48
2024-01-04T01:37:23.043Z,74.53
2024-01-04T01:39:50.035Z,74.45
2024-01-04T01:42:17.501Z,74.54
2024-01-04T01:44:44.618Z,74.45
2024-01-04T01:47:11.634Z,74.43
2024-01-04T01:49:38.780Z,74.46
2024-01-04T01:52:06.180Z,74.57
2024-01-04T01:54:33.888Z,74.56
2024-01-04T01:57:01.500Z,74.61
2024-01-04T01:59:29.345Z,74.50
2024-01-04T02:01:56.472Z,74.17
2024-01-04T02:04:23.491Z,74.36
2024-01-04T02:06:50.619Z,74.41
2024-01-04T02:09:17.918Z,74.38
2024-01-04T02:11:47.122Z,74.41
2024-01-04T02:14:14.006Z,74.42
2024-01-04T02:16:41.010Z,74.47
2024-01-04T02:19:10.680Z,74.46
2024-01-04T02:21:38.848Z,74.54
2024-01-04T02:24:08.712Z,74.58
2024-01-04T02:26:35.849Z,74.64
2024-01-04T02:29:03.215Z,74.56
2024-01-04T02:31:30.196Z,74.52
2024-01-04T02:33:57.292Z,74.58
2024-01-04T02:36:25.896Z,74.44
2024-01-04T02:38:52.859Z,74.52
2024-01-04T02:41:19.830Z,74.54
2024-01-04T02:43:46.722Z,74.44
2024-01-04T02:46:13.670Z,74.52
2024-01-04T02:48:40.848Z,74.70
2024-01-04T02:51:08.012Z,74.64
2024-01-04T02:53:37.206Z,74.65
2024-01-04T02:56:05.554Z,74.71
2024-01-04T02:58:32.629Z,74.61
2024-01-04T03:00:59.844Z,74.60
2024-01-04T03:03:26.908Z,74.57
2024-01-04T03:05:55.597Z,74.63
2024-01-04T03:08:22.804Z,74.52
2024-01-04T03:10:49.811Z,74.58
2024-01-04T03:13:16.797Z,74.68
2024-01-04T03:15:43.711Z,74.64
2024-01-04T03:18:10.739Z,74.59
2024-01-04T03:20:39.063Z,74.79
2024-01-04T03:23:06.139Z,74.72
2024-01-04T03:25:33.123Z,74.61
2024-01-04T03:28:00.130Z,74.70
2024-01-04T03:30:27.298Z,74.65
2024-01-04T03:32:54.430Z,74.66
2024-01-04T03:35:21.448Z,74.65
2024-01-04T03:37:48.294Z,74.60
2024-01-04T03:40:15.611Z,74.76
2024-01-04T03:42:42.705Z,74.56
2024-01-04T03:45:09.779Z,74.71
2024-01-04T03:47:36.912Z,74.62
2024-01-04T03:50:06.547Z,74.61
2024-01-04T03:52:33.704Z,74.73
2024-01-04T03:55:00.645Z,74.61
2024-01-04T03:57:27.621Z,74.82
2024-01-04T03:59:54.630Z,74.85
2024-01-04T04:02:21.675Z,74.73
2024-01-04T04:04:48.752Z,74.87
2024-01-04T04:07:15.623Z,74.84
2024-01-04T04:09:42.698Z,74.85
2024-01-04T04:12:09.831Z,74.92
2024-01-04T04:14:36.892Z,74.75
2024-01-04T04:17:04.059Z,74.88
2024-01-04T04:19:32.096Z,75.00
2024-01-04T04:22:03.810Z,74.88
2024-01-04T04:24:31.804Z,74.93
2024-01-04T04:26:58.877Z,74.87
2024-01-04T04:29:25.857Z,74.99
2024-01-04T04:31:53.058Z,74.95
2024-01-04T04:34:20.163Z,74.91
2024-01-04T04:36:47.396Z,74.89
2024-01-04T04:39:14.688Z,74.89
2024-01-04T04:41:41.920Z,74.87
2024-01-04T04:44:09.026Z,74.93
2024-01-04T04:46:35.952Z,74.93
2024-01-04T04:49:03.148Z,75.03
2024-01-04T04:51:30.161Z,74.93
2024-01-04T04:53:57.414Z,74.90
2024-01-04T04:56:24.370Z,74.99
2024-01-04T04:58:51.364Z,74.95
2024-01-04T05:01:18.512Z,74.93
2024-01-04T05:03:48.422Z,74.89
2024-01-04T05:06:19.575Z,74.97
2024-01-04T05:08:46.936Z,74.87
2024-01-04T05:11:13.973Z,74.93
2024-01-04T05:13:40.927Z,74.90
2024-01-04T05:16:07.908Z,74.81
2024-01-04T05:18:35.184Z,74.78
2024-01-04T05:21:02.286Z,74.86
2024-01-04T05:23:29.468Z,74.89
2024-01-04T05:25:56.647Z,74.94
2024-01-04T05:28:24.162Z,74.87
2024-01-04T05:30:51.118Z,74.83
2024-01-04T05:33:18.244Z,74.84
2024-01-04T05:35:46.626Z,75.04
2024-01-04T05:38:13.660Z,74.79
2024-01-04T05:40:40.718Z,74.91
2024-01-04T05:43:07.780Z,74.78
2024-01-04T05:45:34.708Z,74.78
2024-01-04T05:48:01.863Z,74.90
2024-01-04T05:50:28.874Z,74.87
2024-01-04T05:52:55.999Z,74.93
2024-01-04T05:55:22.901Z,74.96
2024-01-04T05:57:49.840Z,75.05
2024-01-04T06:00:18.625Z,74.97
2024-01-04T06:02:46.256Z,74.93
2024-01-04T06:05:13.543Z,74.84
2024-01-04T06:07:40.617Z,74.76
2024-01-04T06:10:08.190Z,74.98
2024-01-04T06:12:35.332Z,74.98
2024-01-04T06:15:04.744Z,74.97
2024-01-04T06:17:31.922Z,75.07
2024-01-04T06:19:58.994Z,75.10
2024-01-04T06:22:26.015Z,75.01
2024-01-04T06:24:53.130Z,75.00
2024-01-04T06:27:20.185Z,74.92
2024-01-04T06:29:47.307Z,75.02
2024-01-04T06:32:14.392Z,75.00
2024-01-04T06:34:41.544Z,75.03
2024-01-04T06:37:08.665Z,75.07
2024-01-04T06:39:35.679Z,75.12
2024-01-04T06:42:06.463Z,75.16
2024-01-04T06:44:41.405Z,75.17
2024-01-04T06:47:11.520Z,75.13
2024-01-04T06:49:38.595Z,75.07
2024-01-04T06:52:05.773Z,75.11
2024-01-04T06:54:32.754Z,75.06
2024-01-04T06:56:59.665Z,75.12
2024-01-04T06:59:27.982Z,75.18
2024-01-04T07:01:54.974Z,75.20
2024-01-04T07:04:21.945Z,75.20
2024-01-04T07:06:48.965Z,75.10
2024-01-04T07:09:16.236Z,75.28
2024-01-04T07:11:43.302Z,75.29
2024-01-04T07:14:10.538Z,75.18
2024-01-04T07:16:44.228Z,75.27
2024-01-04T07:19:11.614Z,75.33
2024-01-04T07:21:38.612Z,75.20
2024-01-04T07:24:06.125Z,75.21
2024-01-04T07:26:33.091Z,75.25
2024-01-04T07:29:00.024Z,75.23
2024-01-04T07:31:27.184Z,75.17
2024-01-04T07:33:54.261Z,75.12
2024-01-04T07:36:21.369Z,75.32
2024-01-04T07:38:48.840Z,75.27
2024-01-04T07:41:16.067Z,75.26
2024-01-04T07:43:43.239Z,75.31
2024-01-04T07:46:10.140Z,75.27
2024-01-04T07:48:37.192Z,75.31
2024-01-04T07:51:04.572Z,75.39
2024-01-04T07:53:31.629Z,75.34
2024-01-04T07:55:58.787Z,75.44
2024-01-04T07:58:25.756Z,75.36
2024-01-04T08:00:52.763Z,75.32
2024-01-04T08:03:19.882Z,75.32
2024-01-04T08:05:47.160Z,75.33
2024-01-04T08:08:14.192Z,75.32
2024-01-04T08:10:41.103Z,75.26
2024-01-04T08:13:08.089Z,75.43
2024-01-04T08:15:35.125Z,75.52
2024-01-04T08:18:04.448Z,75.34
2024-01-04T08:20:33.754Z,75.34
2024-01-04T08:23:00.939Z,75.43
2024-01-04T08:25:28.467Z,75.30
2024-01-04T08:27:55.895Z,75.33
2024-01-04T08:30:23.098Z,75.41
2024-01-04T08:32:50.427Z,75.25
2024-01-04T08:35:18.740Z,75.28
2024-01-04T08:37:47.027Z,75.32
2024-01-04T17:16:20.509Z,75.76
